createdAt,value
2023-01-08T00:00:26.870Z,629.6
2023-01-08T00:01:29.167Z,629.4
2023-01-08T00:02:31.718Z,629.5
2023-01-08T00:03:35.274Z,630.2
2023-01-08T00:04:37.588Z,630.5
2023-01-08T00:05:39.565Z,630.4
2023-01-08T00:06:42.322Z,630.8
2023-01-08T00:07:44.612Z,630.8
2023-01-08T00:08:47.252Z,630.7
2023-01-08T00:09:49.779Z,630.9
2023-01-08T00:10:52.019Z,631.4
2023-01-08T00:11:54.289Z,631.5
2023-01-08T00:12:56.808Z,631.9
2023-01-08T00:13:59.322Z,632.5
2023-01-08T00:15:01.594Z,633.4
2023-01-08T00:16:04.162Z,633.1
2023-01-08T00:17:05.883Z,633.1
2023-01-08T00:18:08.711Z,634
2023-01-08T00:19:11.359Z,633.6
2023-01-08T00:20:13.900Z,633.4
2023-01-08T00:21:16.167Z,633.6
2023-01-08T00:22:19.030Z,634.1
2023-01-08T00:23:21.581Z,634.1
2023-01-08T00:24:24.199Z,634.2
2023-01-08T00:25:25.859Z,634.4
2023-01-08T00:26:27.813Z,634.7
2023-01-08T00:27:30.083Z,635
2023-01-08T00:28:32.587Z,635.3
2023-01-08T00:29:35.094Z,635.6
2023-01-08T00:30:37.993Z,635.6
2023-01-08T00:31:40.243Z,635.9
2023-01-08T00:32:42.748Z,635.8
2023-01-08T00:33:45.350Z,635.7
2023-01-08T00:34:47.768Z,635.7
2023-01-08T00:35:50.007Z,635.6
2023-01-08T00:36:52.564Z,635.5
2023-01-08T00:37:55.355Z,634.9
2023-01-08T00:38:57.867Z,635.1
2023-01-08T00:40:00.227Z,634.7
2023-01-08T00:41:02.745Z,635.2
2023-01-08T00:42:04.993Z,635.1
2023-01-08T00:43:07.522Z,635.4
2023-01-08T00:44:09.484Z,635.4
2023-01-08T00:45:11.418Z,635.9
2023-01-08T00:46:13.998Z,635.9
2023-01-08T00:47:16.311Z,635.9
2023-01-08T00:48:18.799Z,635.7
2023-01-08T00:49:21.309Z,635.7
2023-01-08T00:50:23.939Z,635.7
2023-01-08T00:51:26.446Z,635.8
2023-01-08T00:52:28.960Z,636
2023-01-08T00:53:31.836Z,635.7
2023-01-08T00:54:34.101Z,635.7
2023-01-08T00:55:36.794Z,636
2023-01-08T00:56:39.301Z,636
2023-01-08T00:57:41.822Z,636.4
2023-01-08T00:58:44.358Z,636.4
2023-01-08T00:59:47.182Z,636.6
2023-01-08T01:00:49.698Z,637
2023-01-08T01:01:53.027Z,636.2
2023-01-08T01:02:55.316Z,636.5
2023-01-08T01:03:58.035Z,636.3
2023-01-08T01:05:00.555Z,636.1
2023-01-08T01:06:02.897Z,636
2023-01-08T01:07:05.438Z,636
2023-01-08T01:08:07.695Z,635.9
2023-01-08T01:09:10.592Z,636.2
2023-01-08T01:10:13.115Z,636.3
2023-01-08T01:11:15.732Z,636.2
2023-01-08T01:12:17.958Z,635.8
2023-01-08T01:13:20.477Z,635.9
2023-01-08T01:14:22.713Z,635.4
2023-01-08T01:15:24.941Z,635.7
2023-01-08T01:16:27.620Z,635.2
2023-01-08T01:17:30.126Z,635.2
2023-01-08T01:18:32.683Z,635.1
2023-01-08T01:19:35.170Z,635.2
2023-01-08T01:20:37.688Z,634.9
2023-01-08T01:21:40.330Z,634.7
2023-01-08T01:22:42.851Z,635
2023-01-08T01:23:45.095Z,634.9
2023-01-08T01:24:48.117Z,635.1
2023-01-08T01:25:50.361Z,635.1
2023-01-08T01:26:52.996Z,635.2
2023-01-08T01:27:55.513Z,635.2
2023-01-08T01:28:57.479Z,634.8
2023-01-08T01:30:00.018Z,634.7
2023-01-08T01:31:02.179Z,635.6
2023-01-08T01:32:04.522Z,635.6
2023-01-08T01:33:06.203Z,635.7
2023-01-08T01:34:08.427Z,636
2023-01-08T01:35:11.125Z,635.8
2023-01-08T01:36:13.400Z,636.1
2023-01-08T01:37:16.121Z,636.1
2023-01-08T01:38:18.615Z,635.8
2023-01-08T01:39:21.180Z,636.1
2023-01-08T01:40:23.928Z,636.1
2023-01-08T01:41:26.494Z,635.8
2023-01-08T01:42:29.119Z,635.6
2023-01-08T01:43:31.621Z,635.9
2023-01-08T01:44:33.594Z,635.7
2023-01-08T01:45:36.320Z,636
2023-01-08T01:46:38.623Z,636.2
2023-01-08T01:47:41.126Z,636
2023-01-08T01:48:43.367Z,636.6
2023-01-08T01:49:45.870Z,636.6
2023-01-08T01:50:48.391Z,636.6
2023-01-08T01:51:50.626Z,636.9
2023-01-08T01:52:53.273Z,637.2
2023-01-08T01:53:55.796Z,637.9
2023-01-08T01:54:58.318Z,638
2023-01-08T01:56:01.314Z,638.3
2023-01-08T01:57:03.826Z,638.8
2023-01-08T01:58:06.220Z,638.8
2023-01-08T01:59:08.773Z,639.2
2023-01-08T02:00:11.298Z,638.7
2023-01-08T02:01:14.363Z,638.6
2023-01-08T02:02:17.938Z,638.5
2023-01-08T02:03:19.991Z,638.6
2023-01-08T02:04:22.578Z,638.2
2023-01-08T02:05:25.079Z,638.3
2023-01-08T02:06:27.594Z,637.9
2023-01-08T02:07:29.826Z,637.6
2023-01-08T02:08:32.436Z,637.7
2023-01-08T02:09:34.947Z,637.7
2023-01-08T02:10:37.539Z,637.9
2023-01-08T02:11:40.160Z,638.2
2023-01-08T02:12:42.665Z,638.5
2023-01-08T02:13:45.058Z,639.3
2023-01-08T02:14:47.313Z,639.7
2023-01-08T02:15:49.272Z,639.9
2023-01-08T02:16:51.976Z,639.9
2023-01-08T02:17:54.509Z,640
2023-01-08T02:18:57.033Z,640.2
2023-01-08T02:19:59.273Z,640.2
2023-01-08T02:21:01.808Z,640.1
2023-01-08T02:22:04.092Z,640.6
2023-01-08T02:23:06.584Z,640.7
2023-01-08T02:24:08.933Z,640.8
2023-01-08T02:25:11.482Z,641
2023-01-08T02:26:14.002Z,641.5
2023-01-08T02:27:16.795Z,641.4
2023-01-08T02:28:19.021Z,641.7
2023-01-08T02:29:21.375Z,642
2023-01-08T02:30:23.596Z,641.9
2023-01-08T02:31:26.086Z,641.8
2023-01-08T02:32:28.620Z,641.7
2023-01-08T02:33:31.149Z,642
2023-01-08T02:34:33.437Z,642.1
2023-01-08T02:35:35.670Z,642.2
2023-01-08T02:36:37.790Z,642.6
2023-01-08T02:37:40.034Z,642.3
2023-01-08T02:38:42.526Z,642.3
2023-01-08T02:39:44.588Z,642.5
2023-01-08T02:40:46.806Z,642.7
2023-01-08T02:41:49.041Z,642.3
2023-01-08T02:42:51.836Z,642.5
2023-01-08T02:43:54.351Z,642.4
2023-01-08T02:44:56.807Z,642
2023-01-08T02:45:59.456Z,642.5
2023-01-08T02:47:02.065Z,642.4
2023-01-08T02:48:04.564Z,642
2023-01-08T02:49:07.232Z,641.9
2023-01-08T02:50:09.439Z,641.8
2023-01-08T02:51:11.400Z,641.5
2023-01-08T02:52:13.654Z,641.8
2023-01-08T02:53:15.965Z,641.9
2023-01-08T02:54:18.230Z,641.5
2023-01-08T02:55:20.853Z,641.9
2023-01-08T02:56:23.387Z,641.7
2023-01-08T02:57:25.616Z,641.9
2023-01-08T02:58:28.481Z,641.7
2023-01-08T02:59:30.517Z,641.8
2023-01-08T03:00:32.880Z,642.2
2023-01-08T03:01:36.021Z,642.1
2023-01-08T03:02:38.620Z,642.1
2023-01-08T03:03:40.589Z,642.6
2023-01-08T03:04:43.001Z,642.6
2023-01-08T03:05:45.564Z,642.6
2023-01-08T03:06:47.295Z,643
2023-01-08T03:07:49.832Z,643.1
2023-01-08T03:08:52.103Z,643.1
2023-01-08T03:09:54.631Z,643.9
2023-01-08T03:10:57.000Z,643.7
2023-01-08T03:11:59.239Z,644
2023-01-08T03:13:00.912Z,644.4
2023-01-08T03:14:03.827Z,644.2
2023-01-08T03:15:06.366Z,644.5
2023-01-08T03:16:08.981Z,644.5
2023-01-08T03:17:11.478Z,644.5
2023-01-08T03:18:13.741Z,644.3
2023-01-08T03:19:16.554Z,644.9
2023-01-08T03:20:18.817Z,644.6
2023-01-08T03:21:21.050Z,644.8
2023-01-08T03:22:23.294Z,644.4
2023-01-08T03:23:25.827Z,644.3
2023-01-08T03:24:28.394Z,644.9
2023-01-08T03:25:30.625Z,645
2023-01-08T03:26:32.895Z,645.1
2023-01-08T03:27:35.141Z,645.1
2023-01-08T03:28:37.668Z,645.2
2023-01-08T03:29:40.566Z,645
2023-01-08T03:30:42.887Z,645.1
2023-01-08T03:31:45.578Z,645.1
2023-01-08T03:32:48.089Z,645.4
2023-01-08T03:33:50.647Z,645.1
2023-01-08T03:34:53.164Z,645.8
2023-01-08T03:35:55.391Z,645.9
2023-01-08T03:36:57.646Z,645.9
2023-01-08T03:38:00.163Z,646
2023-01-08T03:39:02.436Z,645.8
2023-01-08T03:40:04.964Z,646.1
2023-01-08T03:41:07.225Z,646
2023-01-08T03:42:09.574Z,646.3
2023-01-08T03:43:11.856Z,646.8
2023-01-08T03:44:13.825Z,647
2023-01-08T03:45:16.123Z,647.3
2023-01-08T03:46:18.978Z,647.5
2023-01-08T03:47:21.605Z,647.7
2023-01-08T03:48:23.880Z,647.8
2023-01-08T03:49:26.400Z,647.9
2023-01-08T03:50:28.641Z,648.1
2023-01-08T03:51:31.153Z,648.5
2023-01-08T03:52:33.719Z,648.4
2023-01-08T03:53:36.228Z,648.9
2023-01-08T03:54:38.732Z,648.8
2023-01-08T03:55:41.253Z,648.9
2023-01-08T03:56:43.232Z,649.2
2023-01-08T03:57:45.578Z,649.4
2023-01-08T03:58:47.798Z,649.4
2023-01-08T03:59:50.382Z,649.3
2023-01-08T04:00:53.170Z,649.5
2023-01-08T04:01:56.639Z,649.4
2023-01-08T04:02:59.347Z,649.4
2023-01-08T04:04:01.907Z,649.4
2023-01-08T04:05:04.150Z,649.4
2023-01-08T04:06:06.384Z,649.3
2023-01-08T04:07:08.950Z,649.1
2023-01-08T04:08:11.448Z,649
2023-01-08T04:09:13.982Z,649.1
2023-01-08T04:10:16.231Z,648.7
2023-01-08T04:11:18.758Z,649.1
2023-01-08T04:12:21.253Z,649.8
2023-01-08T04:13:23.899Z,649.5
2023-01-08T04:14:26.163Z,649.6
2023-01-08T04:15:29.033Z,649.5
2023-01-08T04:16:31.893Z,649.3
2023-01-08T04:17:34.457Z,649.7
2023-01-08T04:18:37.082Z,649.3
2023-01-08T04:19:39.604Z,649.6
2023-01-08T04:20:41.862Z,650
2023-01-08T04:21:44.085Z,650.5
2023-01-08T04:22:46.618Z,650.4
2023-01-08T04:23:49.153Z,650.4
2023-01-08T04:24:51.123Z,650.1
2023-01-08T04:25:53.639Z,650.5
2023-01-08T04:26:55.880Z,650.2
2023-01-08T04:27:58.418Z,650.2
2023-01-08T04:29:01.079Z,650.1
2023-01-08T04:30:03.336Z,650.2
2023-01-08T04:31:06.236Z,650.1
2023-01-08T04:32:09.132Z,650.6
2023-01-08T04:33:11.113Z,650.5
2023-01-08T04:34:13.754Z,650.6
2023-01-08T04:35:16.279Z,651
2023-01-08T04:36:18.210Z,650.3
2023-01-08T04:37:20.721Z,650.5
2023-01-08T04:38:23.230Z,650.6
2023-01-08T04:39:25.453Z,651.3
2023-01-08T04:40:27.704Z,651.4
2023-01-08T04:41:30.189Z,651.6
2023-01-08T04:42:32.715Z,651.9
2023-01-08T04:43:34.983Z,651.9
2023-01-08T04:44:37.303Z,651.8
2023-01-08T04:45:39.816Z,652
2023-01-08T04:46:42.825Z,651.9
2023-01-08T04:47:45.586Z,652.3
2023-01-08T04:48:48.119Z,652.2
2023-01-08T04:49:50.763Z,652.6
2023-01-08T04:50:53.309Z,653.1
2023-01-08T04:51:55.809Z,652.8
2023-01-08T04:52:58.045Z,652.6
2023-01-08T04:54:00.280Z,652.8
2023-01-08T04:55:02.782Z,652.8
2023-01-08T04:56:05.317Z,652.6
2023-01-08T04:57:07.853Z,652.2
2023-01-08T04:58:10.359Z,652.5
2023-01-08T04:59:12.625Z,652.3
2023-01-08T05:00:14.821Z,652.6
2023-01-08T05:01:17.807Z,653
2023-01-08T05:02:21.243Z,652.8
2023-01-08T05:03:24.101Z,652.9
2023-01-08T05:04:26.649Z,652.9
2023-01-08T05:05:28.974Z,652.3
2023-01-08T05:06:31.548Z,652.4
2023-01-08T05:07:33.789Z,652.1
2023-01-08T05:08:36.306Z,652.2
2023-01-08T05:09:38.856Z,652.3
2023-01-08T05:10:40.849Z,652.4
2023-01-08T05:11:43.333Z,652.7
2023-01-08T05:12:45.852Z,652.5
2023-01-08T05:13:48.355Z,652.8
2023-01-08T05:14:50.840Z,652.6
2023-01-08T05:15:53.753Z,652.5
2023-01-08T05:16:56.275Z,652.3
2023-01-08T05:17:58.507Z,652.7
2023-01-08T05:19:01.439Z,652.6
2023-01-08T05:20:03.675Z,653.1
2023-01-08T05:21:06.280Z,653.3
2023-01-08T05:22:08.535Z,653.3
2023-01-08T05:23:10.739Z,653.4
2023-01-08T05:24:12.456Z,653.2
2023-01-08T05:25:14.953Z,653.2
2023-01-08T05:26:17.213Z,653.1
2023-01-08T05:27:19.462Z,653.6
2023-01-08T05:28:21.683Z,653.8
2023-01-08T05:29:23.957Z,654
2023-01-08T05:30:26.507Z,654.4
2023-01-08T05:31:28.981Z,654.8
2023-01-08T05:32:31.488Z,654.4
2023-01-08T05:33:33.996Z,654.6
2023-01-08T05:34:36.909Z,654.8
2023-01-08T05:35:39.456Z,654
2023-01-08T05:36:41.991Z,654.1
2023-01-08T05:37:43.652Z,653.9
2023-01-08T05:38:45.635Z,653.6
2023-01-08T05:39:48.168Z,653.8
2023-01-08T05:40:50.663Z,654
2023-01-08T05:41:53.150Z,654
2023-01-08T05:42:55.790Z,654.1
2023-01-08T05:43:58.000Z,653.8
2023-01-08T05:45:00.220Z,654
2023-01-08T05:46:02.717Z,654.6
2023-01-08T05:47:05.356Z,654.1
2023-01-08T05:48:07.898Z,654.2
2023-01-08T05:49:10.123Z,654.6
2023-01-08T05:50:13.043Z,654.3
2023-01-08T05:51:15.537Z,654.1
2023-01-08T05:52:18.138Z,654.3
2023-01-08T05:53:20.657Z,654.3
2023-01-08T05:54:23.175Z,654.3
2023-01-08T05:55:25.416Z,653.7
2023-01-08T05:56:27.949Z,653.3
2023-01-08T05:57:30.221Z,653.6
2023-01-08T05:58:32.733Z,653.7
2023-01-08T05:59:35.280Z,653.6
2023-01-08T06:00:37.540Z,653.7
2023-01-08T06:01:40.611Z,654.1
2023-01-08T06:02:43.388Z,654.1
2023-01-08T06:03:46.022Z,653.6
2023-01-08T06:04:48.270Z,653.1
2023-01-08T06:05:51.136Z,653.1
2023-01-08T06:06:53.646Z,653.4
2023-01-08T06:07:56.014Z,653.2
2023-01-08T06:08:58.023Z,653.3
2023-01-08T06:10:00.257Z,653.3
2023-01-08T06:11:02.782Z,653.7
2023-01-08T06:12:05.308Z,653.9
2023-01-08T06:13:07.828Z,653.7
2023-01-08T06:14:10.323Z,653.8
2023-01-08T06:15:12.584Z,652.9
2023-01-08T06:16:15.668Z,652.9
2023-01-08T06:17:18.206Z,652.7
2023-01-08T06:18:20.845Z,652.6
2023-01-08T06:19:23.371Z,652.9
2023-01-08T06:20:25.329Z,652.8
2023-01-08T06:21:28.115Z,653.3
2023-01-08T06:22:32.928Z,653.5
2023-01-08T06:23:38.024Z,654.2
2023-01-08T06:24:40.540Z,654.5
2023-01-08T06:25:43.054Z,654.2
2023-01-08T06:26:45.330Z,653.8
2023-01-08T06:27:47.862Z,653.3
2023-01-08T06:28:50.380Z,653.1
2023-01-08T06:29:52.882Z,653.6
2023-01-08T06:30:55.832Z,653.3
2023-01-08T06:31:58.089Z,653.3
2023-01-08T06:33:00.606Z,653.2
2023-01-08T06:34:02.970Z,653.3
2023-01-08T06:35:05.504Z,652.7
2023-01-08T06:36:07.770Z,653.6
2023-01-08T06:37:10.355Z,653.1
2023-01-08T06:38:12.870Z,653.7
2023-01-08T06:39:15.495Z,653.5
2023-01-08T06:40:18.028Z,653.1
2023-01-08T06:41:20.529Z,653.2
2023-01-08T06:42:23.018Z,653.3
2023-01-08T06:43:26.199Z,654
2023-01-08T06:44:28.727Z,654
2023-01-08T06:45:31.226Z,654.1
2023-01-08T06:46:33.822Z,653.4
2023-01-08T06:47:36.083Z,653
2023-01-08T06:48:38.644Z,652.1
2023-01-08T06:49:41.314Z,652.1
2023-01-08T06:50:43.835Z,652.7
2023-01-08T06:51:46.354Z,652.3
2023-01-08T06:52:49.109Z,652.4
2023-01-08T06:53:51.626Z,651.8
2023-01-08T06:54:54.246Z,651.3
2023-01-08T06:55:56.224Z,651.7
2023-01-08T06:56:58.480Z,651.8
2023-01-08T06:58:00.739Z,652
2023-01-08T06:59:02.718Z,652.5
2023-01-08T07:00:04.675Z,652.5
2023-01-08T07:01:07.208Z,652.5
2023-01-08T07:02:10.642Z,652.5
2023-01-08T07:03:13.872Z,652.8
2023-01-08T07:04:16.468Z,652.5
2023-01-08T07:05:19.145Z,652.5
2023-01-08T07:06:21.410Z,652
2023-01-08T07:07:23.614Z,652
2023-01-08T07:08:26.501Z,651.7
2023-01-08T07:09:29.031Z,651.6
2023-01-08T07:10:31.805Z,651.2
2023-01-08T07:11:34.027Z,650.6
2023-01-08T07:12:36.525Z,650.8
2023-01-08T07:13:39.020Z,651.2
2023-01-08T07:14:41.521Z,650.6
2023-01-08T07:15:44.291Z,650.6
2023-01-08T07:16:46.570Z,651.1
2023-01-08T07:17:49.061Z,651.4
2023-01-08T07:18:51.303Z,651.7
2023-01-08T07:19:53.545Z,651.3
2023-01-08T07:20:55.891Z,651.2
2023-01-08T07:21:58.404Z,650.9
2023-01-08T07:23:00.921Z,651.6
2023-01-08T07:24:03.862Z,651.9
2023-01-08T07:25:05.874Z,652.4
2023-01-08T07:26:08.487Z,652.5
2023-01-08T07:27:11.025Z,652.6
2023-01-08T07:28:13.351Z,652.1
2023-01-08T07:29:15.874Z,652.3
2023-01-08T07:31:23.792Z,652.1
2023-01-08T07:32:26.339Z,651.7
2023-01-08T07:33:28.849Z,652.1
2023-01-08T07:34:30.542Z,652.8
2023-01-08T07:35:33.053Z,652.8
2023-01-08T07:36:35.415Z,652.6
2023-01-08T07:37:37.662Z,652.7
2023-01-08T07:38:39.899Z,652.4
2023-01-08T07:39:42.461Z,651.8
2023-01-08T07:40:44.684Z,651.8
2023-01-08T07:41:47.337Z,652.2
2023-01-08T07:42:49.320Z,651.6
2023-01-08T07:43:51.599Z,651.9
2023-01-08T07:44:54.093Z,652.2
2023-01-08T07:45:56.605Z,652.3
2023-01-08T07:46:59.223Z,652
2023-01-08T07:48:01.505Z,652.1
2023-01-08T07:49:03.741Z,652.4
2023-01-08T07:50:06.411Z,652.2
2023-01-08T07:51:09.027Z,652.1
2023-01-08T07:52:11.317Z,652.6
2023-01-08T07:53:13.555Z,652.8
2023-01-08T07:54:16.130Z,653
2023-01-08T07:55:18.724Z,653.5
2023-01-08T07:56:21.251Z,653.4
2023-01-08T07:57:23.887Z,653.2
2023-01-08T07:58:26.113Z,653.5
2023-01-08T07:59:28.622Z,654.1
2023-01-08T08:00:31.111Z,653.4
2023-01-08T08:01:34.325Z,653.7
2023-01-08T08:02:37.626Z,653.9
2023-01-08T08:03:40.695Z,653.9
2023-01-08T08:04:43.254Z,654
2023-01-08T08:05:45.799Z,654
2023-01-08T08:06:48.337Z,653.7
2023-01-08T08:07:50.968Z,653.7
2023-01-08T08:08:53.474Z,653.9
2023-01-08T08:09:55.431Z,654
2023-01-08T08:10:58.283Z,653.4
2023-01-08T08:12:00.808Z,653.6
2023-01-08T08:13:02.910Z,653.3
2023-01-08T08:14:05.402Z,653
2023-01-08T08:15:07.928Z,652.7
2023-01-08T08:16:10.706Z,652.4
2023-01-08T08:17:13.242Z,652.3
2023-01-08T08:18:15.759Z,652
2023-01-08T08:19:18.009Z,651.9
2023-01-08T08:20:20.516Z,651.5
2023-01-08T08:21:22.736Z,651.5
2023-01-08T08:22:25.246Z,651.6
2023-01-08T08:23:27.370Z,651.6
2023-01-08T08:24:29.587Z,651.5
2023-01-08T08:25:31.832Z,651.9
2023-01-08T08:26:34.303Z,652
2023-01-08T08:27:36.581Z,651.8
2023-01-08T08:28:39.313Z,651.6
2023-01-08T08:29:41.574Z,651.7
2023-01-08T08:30:44.554Z,651.6
2023-01-08T08:31:47.109Z,652.3
2023-01-08T08:32:49.665Z,652.1
2023-01-08T08:33:52.208Z,652.7
2023-01-08T08:34:54.735Z,652.9
2023-01-08T08:35:57.284Z,653
2023-01-08T08:36:59.511Z,652.2
2023-01-08T08:38:02.026Z,652.5
2023-01-08T08:39:04.668Z,652.8
2023-01-08T08:40:07.187Z,652.7
2023-01-08T08:41:09.443Z,652.7
2023-01-08T08:42:12.307Z,652.8
2023-01-08T08:43:14.843Z,652.5
2023-01-08T08:44:17.531Z,652
2023-01-08T08:45:20.042Z,652
2023-01-08T08:46:22.451Z,651.9
2023-01-08T08:47:24.747Z,651.7
2023-01-08T08:48:27.255Z,651.3
2023-01-08T08:49:29.768Z,651.5
2023-01-08T08:50:32.279Z,651.6
2023-01-08T08:51:34.789Z,652.1
2023-01-08T08:52:37.301Z,652.1
2023-01-08T08:53:39.838Z,652.5
2023-01-08T08:54:42.217Z,653.4
2023-01-08T08:55:44.750Z,653.3
2023-01-08T08:56:46.977Z,653.6
2023-01-08T08:57:49.873Z,653.4
2023-01-08T08:58:52.377Z,653.1
2023-01-08T08:59:54.643Z,653.1
2023-01-08T09:00:57.162Z,652.5
2023-01-08T09:02:00.515Z,652.1
2023-01-08T09:03:03.726Z,651.9
2023-01-08T09:04:06.310Z,652.1
2023-01-08T09:05:08.571Z,652.1
2023-01-08T09:06:10.830Z,652.1
2023-01-08T09:07:13.358Z,652.1
2023-01-08T09:08:15.590Z,651.6
2023-01-08T09:09:17.834Z,651.4
2023-01-08T09:10:20.469Z,651.5
2023-01-08T09:11:22.433Z,651.6
2023-01-08T09:12:24.695Z,651.3
2023-01-08T09:13:27.399Z,651.5
2023-01-08T09:14:29.373Z,651.3
2023-01-08T09:15:32.050Z,651.3
2023-01-08T09:16:34.980Z,650.8
2023-01-08T09:17:37.024Z,651.1
2023-01-08T09:18:39.542Z,650.8
2023-01-08T09:19:41.541Z,650.4
2023-01-08T09:20:44.087Z,650.4
2023-01-08T09:21:46.591Z,650.8
2023-01-08T09:22:48.562Z,650.7
2023-01-08T09:23:51.153Z,650.6
2023-01-08T09:24:53.390Z,650.8
2023-01-08T09:25:55.192Z,650.7
2023-01-08T09:26:57.724Z,650.6
2023-01-08T09:27:59.982Z,650.3
2023-01-08T09:29:02.909Z,649.6
2023-01-08T09:30:05.416Z,650.4
2023-01-08T09:31:08.455Z,650.5
2023-01-08T09:32:10.193Z,650.8
2023-01-08T09:33:12.173Z,650.4
2023-01-08T09:34:14.398Z,650.4
2023-01-08T09:35:16.644Z,649.9
2023-01-08T09:36:18.878Z,649.9
2023-01-08T09:37:20.827Z,650
2023-01-08T09:38:23.370Z,649.8
2023-01-08T09:39:25.625Z,650.2
2023-01-08T09:40:28.002Z,650.2
2023-01-08T09:41:30.359Z,650.5
2023-01-08T09:42:32.963Z,650.5
2023-01-08T09:43:35.521Z,650.7
2023-01-08T09:44:38.392Z,650.6
2023-01-08T09:45:40.654Z,650.5
2023-01-08T09:46:43.735Z,650.9
2023-01-08T09:47:46.259Z,651.4
2023-01-08T09:48:48.788Z,651.6
2023-01-08T09:49:51.314Z,652.1
2023-01-08T09:50:53.932Z,652.4
2023-01-08T09:51:56.462Z,653
2023-01-08T09:52:58.979Z,652.8
2023-01-08T09:54:01.246Z,653.7
2023-01-08T09:55:03.508Z,653.9
2023-01-08T09:57:11.021Z,654.4
2023-01-08T09:58:13.251Z,654.5
2023-01-08T09:59:15.567Z,654.8
2023-01-08T10:00:18.415Z,655.2
2023-01-08T10:01:21.824Z,655.1
2023-01-08T10:02:25.248Z,655.7
2023-01-08T10:03:27.792Z,655.5
2023-01-08T10:04:30.035Z,655.4
2023-01-08T10:05:32.579Z,655.2
2023-01-08T10:06:35.092Z,655.5
2023-01-08T10:07:37.340Z,655.4
2023-01-08T10:08:39.868Z,655.4
2023-01-08T10:09:42.394Z,654.4
2023-01-08T10:10:44.906Z,654.4
2023-01-08T10:11:47.435Z,653.8
2023-01-08T10:12:50.106Z,653.8
2023-01-08T10:13:52.329Z,653.9
2023-01-08T10:14:56.408Z,653.7
2023-01-08T10:15:59.576Z,653.9
2023-01-08T10:17:02.107Z,654
2023-01-08T10:18:04.257Z,653.9
2023-01-08T10:19:06.785Z,653.8
2023-01-08T10:20:09.008Z,654.1
2023-01-08T10:21:11.536Z,654.3
2023-01-08T10:22:13.808Z,655.2
2023-01-08T10:23:16.596Z,655.1
2023-01-08T10:24:19.132Z,655.1
2023-01-08T10:25:21.653Z,654.8
2023-01-08T10:26:23.884Z,654.8
2023-01-08T10:27:26.131Z,654.7
2023-01-08T10:28:28.775Z,655
2023-01-08T10:29:31.290Z,655
2023-01-08T10:30:33.589Z,655
2023-01-08T10:31:36.727Z,655.2
2023-01-08T10:32:38.999Z,656.1
2023-01-08T10:33:41.620Z,656.2
2023-01-08T10:34:44.157Z,656.7
2023-01-08T10:35:46.663Z,656.2
2023-01-08T10:36:49.177Z,656
2023-01-08T10:37:51.686Z,655.9
2023-01-08T10:38:54.246Z,655.7
2023-01-08T10:39:56.228Z,655.9
2023-01-08T10:40:58.731Z,656.4
2023-01-08T10:42:00.944Z,656.1
2023-01-08T10:43:03.467Z,656.1
2023-01-08T10:44:05.755Z,656.2
2023-01-08T10:45:09.998Z,656.3
2023-01-08T10:46:12.880Z,656.2
2023-01-08T10:47:15.630Z,656.1
2023-01-08T10:48:17.883Z,656.1
2023-01-08T10:49:19.849Z,655.8
2023-01-08T10:50:22.581Z,655.7
2023-01-08T10:51:25.123Z,655.6
2023-01-08T10:52:26.831Z,655.5
2023-01-08T10:53:29.087Z,656
2023-01-08T10:54:31.345Z,656
2023-01-08T10:55:33.655Z,656.1
2023-01-08T10:56:35.917Z,656.1
2023-01-08T10:57:38.436Z,656
2023-01-08T10:58:40.929Z,655.6
2023-01-08T10:59:43.584Z,655.4
2023-01-08T11:00:45.999Z,655.7
2023-01-08T11:01:49.061Z,655.9
2023-01-08T11:02:51.806Z,656.1
2023-01-08T11:03:53.812Z,656.6
2023-01-08T11:04:56.095Z,656.1
2023-01-08T11:05:58.616Z,656
2023-01-08T11:07:00.867Z,655.9
2023-01-08T11:08:03.101Z,656.3
2023-01-08T11:09:05.076Z,656.4
2023-01-08T11:10:07.632Z,656.1
2023-01-08T11:11:09.847Z,656.2
2023-01-08T11:12:12.080Z,655.9
2023-01-08T11:13:14.312Z,655.7
2023-01-08T11:14:16.568Z,655.7
2023-01-08T11:15:18.823Z,655.5
2023-01-08T11:16:20.927Z,656.2
2023-01-08T11:17:22.618Z,656.7
2023-01-08T11:18:25.296Z,656.7
2023-01-08T11:19:27.263Z,657.3
2023-01-08T11:20:29.926Z,658.5
2023-01-08T11:21:32.457Z,659.8
2023-01-08T11:22:34.979Z,660.9
2023-01-08T11:23:37.574Z,661.8
2023-01-08T11:24:39.806Z,661.7
2023-01-08T11:25:42.072Z,661.9
2023-01-08T11:26:44.321Z,662.5
2023-01-08T11:27:46.854Z,662.5
2023-01-08T11:28:48.846Z,662.6
2023-01-08T11:29:51.056Z,662.1
2023-01-08T11:30:53.591Z,662
2023-01-08T11:31:56.594Z,661.7
2023-01-08T11:32:59.181Z,661.6
2023-01-08T11:34:01.736Z,661.3
2023-01-08T11:35:04.242Z,661.8
2023-01-08T11:36:06.540Z,662.1
2023-01-08T11:37:09.049Z,661.9
2023-01-08T11:38:11.275Z,662
2023-01-08T11:39:13.809Z,661.9
2023-01-08T11:40:15.492Z,662.3
2023-01-08T11:41:17.752Z,662
2023-01-08T11:42:20.011Z,662.6
2023-01-08T11:43:22.248Z,662.7
2023-01-08T11:44:24.807Z,662.7
2023-01-08T11:45:27.253Z,663
2023-01-08T11:46:29.537Z,663.9
2023-01-08T11:47:31.759Z,664
2023-01-08T11:48:34.277Z,664.4
2023-01-08T11:49:36.573Z,664.5
2023-01-08T11:50:38.920Z,664.6
2023-01-08T11:51:41.491Z,664
2023-01-08T11:52:43.724Z,664.2
2023-01-08T11:53:46.308Z,664.2
2023-01-08T11:54:48.575Z,664.5
2023-01-08T11:55:51.100Z,664.5
2023-01-08T11:56:53.619Z,664.4
2023-01-08T11:57:55.591Z,664.8
2023-01-08T11:58:57.556Z,664.3
2023-01-08T11:59:59.806Z,664.3
2023-01-08T12:01:02.343Z,664.4
2023-01-08T12:02:05.253Z,663.9
2023-01-08T12:03:07.514Z,664
2023-01-08T12:04:10.048Z,663.8
2023-01-08T12:05:12.481Z,664.2
2023-01-08T12:06:15.097Z,663.9
2023-01-08T12:07:17.640Z,664.3
2023-01-08T12:08:19.866Z,664.2
2023-01-08T12:09:22.099Z,664.4
2023-01-08T12:10:24.127Z,664
2023-01-08T12:11:26.356Z,664.4
2023-01-08T12:12:28.916Z,664.1
2023-01-08T12:13:31.133Z,664.1
2023-01-08T12:14:33.379Z,664.3
2023-01-08T12:15:35.903Z,664.4
2023-01-08T12:16:38.420Z,664.7
2023-01-08T12:17:40.708Z,664.6
2023-01-08T12:18:42.086Z,664.7
2023-01-08T12:19:44.579Z,664.9
2023-01-08T12:20:46.884Z,665
2023-01-08T12:21:49.401Z,665.1
2023-01-08T12:22:51.668Z,665.2
2023-01-08T12:23:53.883Z,665.3
2023-01-08T12:24:56.097Z,665.3
2023-01-08T12:25:58.610Z,665.4
2023-01-08T12:27:00.825Z,666
2023-01-08T12:28:03.383Z,665.7
2023-01-08T12:29:05.832Z,665.8
2023-01-08T12:30:08.426Z,666.4
2023-01-08T12:31:10.642Z,666.6
2023-01-08T12:32:13.543Z,667
2023-01-08T12:33:16.186Z,667.2
2023-01-08T12:34:18.720Z,667.6
2023-01-08T12:35:21.233Z,667.8
2023-01-08T12:36:23.511Z,668
2023-01-08T12:37:25.771Z,668.7
2023-01-08T12:38:28.001Z,668.8
2023-01-08T12:39:30.222Z,668.8
2023-01-08T12:40:32.451Z,669.3
2023-01-08T12:41:34.707Z,669.6
2023-01-08T12:42:37.079Z,670.1
2023-01-08T12:43:39.597Z,670
2023-01-08T12:44:42.145Z,670.1
2023-01-08T12:45:44.974Z,670.5
2023-01-08T12:46:47.259Z,670.1
2023-01-08T12:47:49.775Z,670.2
2023-01-08T12:48:54.024Z,670.8
2023-01-08T12:49:56.550Z,671.1
2023-01-08T12:50:58.788Z,671.6
2023-01-08T12:52:01.371Z,671.9
2023-01-08T12:53:03.899Z,672.3
2023-01-08T12:54:06.484Z,672.6
2023-01-08T12:55:08.708Z,672.9
2023-01-08T12:56:10.662Z,672.5
2023-01-08T12:57:13.237Z,673.1
2023-01-08T12:58:15.455Z,672.8
2023-01-08T12:59:17.650Z,672.9
2023-01-08T13:00:20.417Z,672.6
2023-01-08T13:01:23.696Z,672
2023-01-08T13:02:26.952Z,671.7
2023-01-08T13:03:29.272Z,671.5
2023-01-08T13:04:31.829Z,670.7
2023-01-08T13:05:33.813Z,670.8
2023-01-08T13:06:36.331Z,670.8
2023-01-08T13:07:38.919Z,671.4
2023-01-08T13:08:41.445Z,671.6
2023-01-08T13:09:43.380Z,672.2
2023-01-08T13:10:45.592Z,672
2023-01-08T13:11:48.105Z,671.9
2023-01-08T13:12:50.623Z,671.7
2023-01-08T13:13:53.135Z,672.1
2023-01-08T13:14:55.661Z,672.2
2023-01-08T13:15:57.932Z,672
2023-01-08T13:17:00.485Z,672.3
2023-01-08T13:18:03.012Z,672
2023-01-08T13:19:05.601Z,672.9
2023-01-08T13:20:08.190Z,673
2023-01-08T13:21:10.440Z,673
2023-01-08T13:22:12.964Z,673.1
2023-01-08T13:23:15.589Z,673.1
2023-01-08T13:24:18.090Z,672.8
2023-01-08T13:25:20.622Z,672.4
2023-01-08T13:26:22.845Z,672.5
2023-01-08T13:27:25.353Z,672.8
2023-01-08T13:28:27.861Z,673
2023-01-08T13:29:29.577Z,673.8
2023-01-08T13:30:32.641Z,674.1
2023-01-08T13:31:34.634Z,674.6
2023-01-08T13:32:37.380Z,674.4